Time;durP1;ratioP1;P1;durP2;ratioP2;P2;SDS_P1;SDS_P2;PMS_P1;PMS_P2;Temp;Humidity;BMP_temperature;BMP_pressure;BME280_temperature;BME280_humidity;BME280_pressure;Samples;Min_cycle;Max_cycle;Signal;HPM_P1;HPM_P2
2022/11/25 00:00:00;;;;;;;10.20;4.30;;;5.30;99.90;;;;;;5135765;27;20982;-58
2022/11/25 00:02:28;;;;;;;7.00;4.07;;;5.40;99.90;;;;;;5136004;27;20480;-59
2022/11/25 00:04:56;;;;;;;9.40;4.67;;;5.40;99.90;;;;;;5135062;27;20868;-60
2022/11/25 00:07:24;;;;;;;8.10;4.90;;;5.30;99.90;;;;;;5135931;27;20780;-59
2022/11/25 00:09:51;;;;;;;6.73;3.93;;;5.40;99.90;;;;;;5135566;27;20529;-59
2022/11/25 00:12:18;;;;;;;7.03;4.53;;;5.40;99.90;;;;;;5135749;27;20469;-60
2022/11/25 00:14:45;;;;;;;9.80;4.00;;;5.30;99.90;;;;;;5135768;27;20477;-58
2022/11/25 00:17:12;;;;;;;6.90;3.60;;;5.30;99.90;;;;;;5135715;27;20442;-59
2022/11/25 00:19:40;;;;;;;7.10;4.20;;;5.30;99.90;;;;;;5135119;27;21002;-57
2022/11/25 00:22:08;;;;;;;7.47;4.57;;;5.20;99.90;;;;;;5135622;27;20520;-57
2022/11/25 00:24:35;;;;;;;6.20;4.23;;;5.20;99.90;;;;;;5135141;27;20943;-57
2022/11/25 00:27:03;;;;;;;6.00;3.90;;;5.20;99.90;;;;;;5135523;27;20470;-58
2022/11/25 00:29:31;;;;;;;6.50;4.20;;;5.20;99.90;;;;;;5135114;27;20795;-58
2022/11/25 00:31:58;;;;;;;12.83;5.73;;;5.20;99.90;;;;;;5135123;27;20990;-58
2022/11/25 00:34:25;;;;;;;9.13;4.40;;;5.20;99.90;;;;;;5134987;27;20552;-57
2022/11/25 00:36:53;;;;;;;5.43;3.77;;;5.30;99.90;;;;;;5134989;27;20466;-58
2022/11/25 00:39:23;;;;;;;6.53;4.10;;;5.30;99.90;;;;;;5135316;27;20442;-57
2022/11/25 00:44:46;;;;;;;7.97;4.30;;;5.20;99.90;;;;;;5052291;28;20423;-58
2022/11/25 00:47:16;;;;;;;4.80;3.90;;;5.20;99.90;;;;;;5115218;27;20465;-58
2022/11/25 00:49:45;;;;;;;7.43;4.20;;;5.20;99.90;;;;;;5135731;27;20885;-58
2022/11/25 00:52:15;;;;;;;7.57;4.53;;;5.30;99.90;;;;;;5135123;27;20864;-58
2022/11/25 00:54:44;;;;;;;9.93;4.23;;;5.30;99.90;;;;;;5134983;27;20562;-58
2022/11/25 00:57:11;;;;;;;4.60;4.10;;;5.30;99.90;;;;;;5134794;27;20940;-58
2022/11/25 00:59:39;;;;;;;6.27;3.90;;;5.40;99.90;;;;;;5134684;27;20956;-58
2022/11/25 01:02:06;;;;;;;6.23;4.37;;;5.40;99.90;;;;;;5134651;27;20488;-58
2022/11/25 01:04:33;;;;;;;6.10;3.97;;;5.40;99.90;;;;;;5134853;27;20524;-58
2022/11/25 01:07:01;;;;;;;8.80;4.00;;;5.50;99.90;;;;;;5134931;27;20438;-58
2022/11/25 01:09:29;;;;;;;8.20;4.17;;;5.50;99.90;;;;;;5134591;27;20449;-58
2022/11/25 01:11:58;;;;;;;9.53;4.50;;;5.50;99.90;;;;;;5134889;27;20473;-58
2022/11/25 01:14:26;;;;;;;7.10;4.53;;;5.60;99.90;;;;;;5134799;27;20473;-58
2022/11/25 01:16:53;;;;;;;7.70;4.47;;;5.60;99.90;;;;;;5134270;27;20504;-58
2022/11/25 01:19:20;;;;;;;7.13;4.60;;;5.60;99.90;;;;;;5134212;27;20453;-58
2022/11/25 01:21:48;;;;;;;11.30;5.67;;;5.60;99.90;;;;;;5134539;28;20787;-58
2022/11/25 01:24:16;;;;;;;10.50;4.20;;;5.60;99.90;;;;;;5134452;28;20438;-58
2022/11/25 01:26:44;;;;;;;9.07;5.10;;;5.70;99.90;;;;;;5134385;28;20977;-58
2022/11/25 01:29:17;;;;;;;4.10;3.70;;;5.90;99.90;;;;;;5134692;28;20450;-58
2022/11/25 01:31:44;;;;;;;3.70;3.40;;;6.00;99.90;;;;;;5134424;28;20923;-59
2022/11/25 01:34:14;;;;;;;4.47;3.90;;;6.20;99.90;;;;;;5134252;28;21042;-58
2022/11/25 01:36:42;;;;;;;9.20;5.90;;;6.30;99.90;;;;;;5134231;28;20493;-58
2022/11/25 01:39:13;;;;;;;4.53;3.87;;;6.30;99.90;;;;;;5134582;28;20473;-59
2022/11/25 01:41:40;;;;;;;5.40;3.50;;;6.40;99.90;;;;;;5134613;28;20513;-59
2022/11/25 01:44:15;;;;;;;9.50;4.23;;;6.40;99.90;;;;;;5134287;28;20965;-59
2022/11/25 01:46:51;;;;;;;5.50;5.00;;;6.50;99.90;;;;;;5134516;28;20548;-58
2022/11/25 01:49:22;;;;;;;6.10;3.40;;;6.50;99.90;;;;;;5134998;28;20532;-59
2022/11/25 01:51:54;;;;;;;6.73;3.73;;;6.60;99.90;;;;;;5134259;28;20472;-58
2022/11/25 01:54:26;;;;;;;7.53;3.90;;;6.60;99.90;;;;;;5134999;28;20468;-58
2022/11/25 01:56:59;;;;;;;3.63;3.23;;;6.60;99.90;;;;;;5134119;28;20518;-58
2022/11/25 01:59:29;;;;;;;6.90;3.60;;;6.60;99.90;;;;;;5134444;28;20426;-58
2022/11/25 02:01:58;;;;;;;8.10;4.43;;;6.50;99.90;;;;;;5134482;28;20426;-58
2022/11/25 02:04:31;;;;;;;5.30;4.23;;;6.60;99.90;;;;;;5134079;28;20976;-58
2022/11/25 02:07:03;;;;;;;7.60;4.10;;;6.60;99.90;;;;;;5134098;28;20466;-58
2022/11/25 02:09:31;;;;;;;11.87;4.23;;;6.70;99.90;;;;;;5134046;28;20968;-58
2022/11/25 02:11:59;;;;;;;3.73;3.30;;;6.70;99.90;;;;;;5134297;28;20520;-58
2022/11/25 02:14:28;;;;;;;9.20;4.80;;;6.70;99.90;;;;;;5133871;28;20535;-58
2022/11/25 02:16:55;;;;;;;5.00;4.50;;;6.70;99.90;;;;;;5133885;28;20549;-58
2022/11/25 02:19:25;;;;;;;10.27;4.60;;;6.70;99.90;;;;;;5133663;28;20453;-58
2022/11/25 02:22:00;;;;;;;6.47;4.97;;;6.70;99.90;;;;;;5134273;28;20466;-58
2022/11/25 02:24:35;;;;;;;7.60;4.50;;;6.60;99.90;;;;;;5134244;28;20522;-58
2022/11/25 02:27:04;;;;;;;6.50;4.73;;;6.60;99.90;;;;;;5134231;27;20508;-58
2022/11/25 02:29:32;;;;;;;5.47;5.07;;;6.60;99.90;;;;;;5137601;27;20445;-58
2022/11/25 02:32:00;;;;;;;4.40;3.40;;;6.50;99.90;;;;;;5137506;27;20979;-58
2022/11/25 02:34:27;;;;;;;9.63;5.00;;;6.50;99.90;;;;;;5137677;27;20481;-58
2022/11/25 02:36:55;;;;;;;5.10;3.63;;;6.40;99.90;;;;;;5137392;27;20505;-58
2022/11/25 02:39:23;;;;;;;7.80;3.90;;;6.50;99.90;;;;;;5137742;27;20475;-58
2022/11/25 02:41:54;;;;;;;6.37;4.70;;;6.40;99.90;;;;;;5137701;27;20441;-59
2022/11/25 02:44:23;;;;;;;10.53;4.67;;;6.40;99.90;;;;;;5137296;27;20441;-58
2022/11/25 02:46:51;;;;;;;6.13;5.37;;;6.40;99.90;;;;;;5137471;27;20466;-58
2022/11/25 02:49:18;;;;;;;4.77;4.27;;;6.40;99.90;;;;;;5137195;27;20546;-58
2022/11/25 02:51:46;;;;;;;8.50;5.50;;;6.40;99.90;;;;;;5137201;27;20458;-59
2022/11/25 02:54:14;;;;;;;6.70;5.23;;;6.40;99.90;;;;;;5137327;27;20565;-58
2022/11/25 02:56:42;;;;;;;6.70;4.50;;;6.40;99.90;;;;;;5137427;27;20536;-58
2022/11/25 02:59:10;;;;;;;10.70;4.97;;;6.30;99.90;;;;;;5137325;27;20485;-59
2022/11/25 03:01:39;;;;;;;5.73;5.10;;;6.20;99.90;;;;;;5137266;27;20473;-58
2022/11/25 03:04:06;;;;;;;8.83;6.03;;;6.10;99.90;;;;;;5137217;27;20448;-58
2022/11/25 03:06:34;;;;;;;11.50;7.00;;;6.00;99.90;;;;;;5137648;27;20526;-58
2022/11/25 03:09:01;;;;;;;12.53;6.17;;;5.90;99.90;;;;;;5137125;27;20477;-58
2022/11/25 03:14:09;;;;;;;9.00;7.17;;;5.80;99.90;;;;;;5135747;27;20469;-58
2022/11/25 03:16:38;;;;;;;12.20;6.73;;;5.80;99.90;;;;;;5136643;27;20544;-58
2022/11/25 03:19:06;;;;;;;10.07;7.40;;;5.80;99.90;;;;;;5136601;27;20446;-58
2022/11/25 03:21:33;;;;;;;10.67;7.30;;;5.70;99.90;;;;;;5136972;27;20505;-58
2022/11/25 03:24:00;;;;;;;11.53;6.80;;;5.70;99.90;;;;;;5136859;27;20828;-58
2022/11/25 03:26:27;;;;;;;7.20;6.50;;;5.70;99.90;;;;;;5136442;27;20544;-58
2022/11/25 03:28:55;;;;;;;7.00;6.30;;;5.70;99.90;;;;;;5136763;27;20481;-58
2022/11/25 03:31:22;;;;;;;12.10;7.00;;;5.70;99.90;;;;;;5136257;27;20481;-58
2022/11/25 03:33:51;;;;;;;8.60;6.90;;;5.60;99.90;;;;;;5136477;27;20573;-58
2022/11/25 03:36:18;;;;;;;13.37;7.33;;;5.50;99.90;;;;;;5136382;27;20501;-58
2022/11/25 03:38:45;;;;;;;11.33;6.30;;;5.40;99.90;;;;;;5136505;27;20863;-59
2022/11/25 03:41:12;;;;;;;7.33;6.67;;;5.30;99.90;;;;;;5136335;27;20441;-58
2022/11/25 03:43:40;;;;;;;9.07;6.70;;;5.30;99.90;;;;;;5136308;27;20448;-58
2022/11/25 03:46:07;;;;;;;17.87;6.20;;;5.30;99.90;;;;;;5135943;27;20493;-58
2022/11/25 03:48:34;;;;;;;8.53;5.10;;;5.40;99.90;;;;;;5136101;27;20477;-58
2022/11/25 03:51:03;;;;;;;8.27;5.30;;;5.50;99.90;;;;;;5136455;27;20984;-58
2022/11/25 03:53:30;;;;;;;6.67;4.97;;;5.50;99.90;;;;;;5135905;27;20502;-58
2022/11/25 03:55:57;;;;;;;7.97;5.83;;;5.40;99.90;;;;;;5135877;27;20501;-58
2022/11/25 03:58:24;;;;;;;13.93;6.10;;;5.30;99.90;;;;;;5135860;27;20477;-58
2022/11/25 04:00:52;;;;;;;7.17;5.87;;;5.30;99.90;;;;;;5136091;27;20540;-58
2022/11/25 04:03:20;;;;;;;6.57;5.33;;;5.30;99.90;;;;;;5135761;27;20540;-58
2022/11/25 04:05:47;;;;;;;7.17;6.27;;;5.30;99.90;;;;;;5135608;27;20466;-58
2022/11/25 04:08:20;;;;;;;9.30;5.13;;;5.20;99.90;;;;;;5135661;27;20536;-58
2022/11/25 04:10:48;;;;;;;7.10;5.90;;;5.10;99.90;;;;;;5135596;27;20536;-58
2022/11/25 04:13:15;;;;;;;7.97;5.73;;;5.00;99.90;;;;;;5135581;27;20445;-58
2022/11/25 04:15:45;;;;;;;13.20;6.70;;;4.90;99.90;;;;;;5135390;27;20485;-58
2022/11/25 04:18:13;;;;;;;8.63;5.90;;;4.90;99.90;;;;;;5135779;27;20422;-58
2022/11/25 04:20:40;;;;;;;6.83;5.30;;;4.90;99.90;;;;;;5135112;27;20481;-58
2022/11/25 04:23:07;;;;;;;5.93;5.33;;;4.90;99.90;;;;;;5135355;27;20477;-58
2022/11/25 04:25:37;;;;;;;7.07;5.70;;;4.90;99.90;;;;;;5135583;27;20510;-58
2022/11/25 04:28:05;;;;;;;7.47;5.43;;;5.00;99.90;;;;;;5135243;27;20484;-58
2022/11/25 04:30:33;;;;;;;6.33;5.70;;;5.00;99.90;;;;;;5135568;27;20449;-58
2022/11/25 04:33:01;;;;;;;6.83;6.13;;;4.90;99.90;;;;;;5135149;27;20911;-58
2022/11/25 04:35:28;;;;;;;8.37;6.20;;;4.90;99.90;;;;;;5135298;27;20839;-58
2022/11/25 04:37:55;;;;;;;9.77;6.10;;;5.00;99.90;;;;;;5135104;27;20532;-58
2022/11/25 04:40:22;;;;;;;12.60;5.63;;;5.00;99.90;;;;;;5135349;27;20619;-58
2022/11/25 04:42:51;;;;;;;18.67;7.20;;;5.10;99.90;;;;;;5135324;27;20485;-58
2022/11/25 04:45:18;;;;;;;9.70;6.53;;;5.20;99.90;;;;;;5135197;27;20457;-58
2022/11/25 04:47:46;;;;;;;11.17;7.77;;;5.10;99.90;;;;;;5135236;27;20533;-58
2022/11/25 04:50:16;;;;;;;7.13;6.43;;;5.20;99.90;;;;;;5134319;27;20453;-58
2022/11/25 04:52:43;;;;;;;9.77;6.20;;;5.30;99.90;;;;;;5134905;27;20469;-58
2022/11/25 04:55:11;;;;;;;6.57;5.20;;;5.20;99.90;;;;;;5134706;27;20492;-59
2022/11/25 04:57:38;;;;;;;7.70;6.20;;;5.20;99.90;;;;;;5135110;27;20532;-58
2022/11/25 05:00:08;;;;;;;10.43;6.53;;;5.20;99.90;;;;;;5135023;27;20481;-58
2022/11/25 05:02:35;;;;;;;11.23;6.20;;;5.20;99.90;;;;;;5134686;27;20452;-58
2022/11/25 05:05:03;;;;;;;9.70;6.90;;;5.20;99.90;;;;;;5134892;27;20489;-58
2022/11/25 05:07:30;;;;;;;8.07;7.33;;;5.20;99.90;;;;;;5135478;27;20502;-58
2022/11/25 05:09:57;;;;;;;11.20;7.57;;;5.10;99.90;;;;;;5134594;27;20488;-58
2022/11/25 05:12:27;;;;;;;9.17;6.70;;;5.10;99.90;;;;;;5134887;27;20488;-58
2022/11/25 05:14:54;;;;;;;8.67;6.43;;;5.00;99.90;;;;;;5134693;27;20493;-58
2022/11/25 05:17:24;;;;;;;10.30;6.10;;;5.10;99.90;;;;;;5134814;27;20441;-58
2022/11/25 05:19:52;;;;;;;9.40;6.90;;;5.10;99.90;;;;;;5134168;27;20877;-58
2022/11/25 05:22:21;;;;;;;9.00;6.67;;;5.10;99.90;;;;;;5134370;27;20456;-58
2022/11/25 05:24:48;;;;;;;7.03;6.33;;;5.00;99.90;;;;;;5134615;28;20442;-58
2022/11/25 05:27:16;;;;;;;11.73;7.20;;;4.90;99.90;;;;;;5134412;28;20481;-58
2022/11/25 05:29:44;;;;;;;9.07;7.00;;;5.00;99.90;;;;;;5134403;28;20477;-58
2022/11/25 05:32:12;;;;;;;10.97;5.43;;;5.00;99.90;;;;;;5134563;28;20470;-58
2022/11/25 05:34:41;;;;;;;6.97;5.93;;;5.00;99.90;;;;;;5134165;28;20520;-58
2022/11/25 05:37:10;;;;;;;6.67;6.00;;;5.00;99.90;;;;;;5134234;28;20481;-58
2022/11/25 05:39:37;;;;;;;8.20;5.97;;;5.00;99.90;;;;;;5134604;28;20510;-58
2022/11/25 05:42:05;;;;;;;11.93;5.90;;;5.00;99.90;;;;;;5134205;28;20953;-58
2022/11/25 05:44:32;;;;;;;6.57;5.37;;;5.10;99.90;;;;;;5134524;28;20524;-58
2022/11/25 05:46:59;;;;;;;7.93;4.83;;;5.10;99.90;;;;;;5134515;28;20529;-58
2022/11/25 05:49:26;;;;;;;10.93;5.03;;;5.10;99.90;;;;;;5134079;28;20506;-58
2022/11/25 05:51:55;;;;;;;8.00;5.77;;;5.00;99.90;;;;;;5133985;28;20454;-58
2022/11/25 05:54:22;;;;;;;9.77;5.47;;;5.10;99.90;;;;;;5134067;28;20994;-58
2022/11/25 05:56:49;;;;;;;5.67;5.13;;;5.10;99.90;;;;;;5134274;28;20496;-58
2022/11/25 05:59:16;;;;;;;9.33;5.63;;;5.20;99.90;;;;;;5134919;28;20446;-58
2022/11/25 06:01:44;;;;;;;8.77;5.63;;;5.20;99.90;;;;;;5134056;27;20452;-58
2022/11/25 06:04:11;;;;;;;9.60;6.20;;;5.20;99.90;;;;;;5137895;27;20529;-58
2022/11/25 06:06:39;;;;;;;7.17;5.70;;;5.30;99.90;;;;;;5137945;27;20544;-58
2022/11/25 06:09:07;;;;;;;6.83;6.23;;;5.30;99.90;;;;;;5137966;27;20533;-58
2022/11/25 06:11:35;;;;;;;6.03;5.47;;;5.40;99.90;;;;;;5137787;27;21014;-58
2022/11/25 06:14:02;;;;;;;6.80;5.70;;;5.30;99.90;;;;;;5137630;27;20536;-58
2022/11/25 06:16:29;;;;;;;6.07;5.57;;;5.30;99.90;;;;;;5138051;27;20465;-59
2022/11/25 06:18:57;;;;;;;7.03;6.23;;;5.30;99.90;;;;;;5137837;27;20442;-59
2022/11/25 06:21:24;;;;;;;9.03;5.13;;;5.20;99.90;;;;;;5137009;27;20556;-58
2022/11/25 06:23:51;;;;;;;8.83;5.23;;;5.20;99.90;;;;;;5137577;27;20944;-58
2022/11/25 06:26:21;;;;;;;13.67;5.73;;;5.10;99.90;;;;;;5137287;27;20463;-58
2022/11/25 06:28:52;;;;;;;7.90;7.20;;;5.10;99.90;;;;;;5137817;27;20536;-58
2022/11/25 06:31:21;;;;;;;6.87;6.10;;;5.00;99.90;;;;;;5137236;27;20422;-58
2022/11/25 06:33:50;;;;;;;8.17;6.20;;;5.00;99.90;;;;;;5137141;27;20484;-58
2022/11/25 06:36:19;;;;;;;6.40;5.73;;;5.00;99.90;;;;;;5137161;27;20520;-58
2022/11/25 06:38:47;;;;;;;10.97;5.93;;;5.10;99.90;;;;;;5137154;27;20488;-58
2022/11/25 06:41:15;;;;;;;10.33;6.70;;;5.10;99.90;;;;;;5137436;27;20533;-58
2022/11/25 06:43:44;;;;;;;11.43;5.93;;;5.00;99.90;;;;;;5137118;27;20923;-58
2022/11/25 06:46:13;;;;;;;6.03;5.43;;;5.10;99.90;;;;;;5137262;27;20470;-58
2022/11/25 06:48:41;;;;;;;7.10;5.43;;;5.20;99.90;;;;;;5136918;27;20519;-58
2022/11/25 06:51:10;;;;;;;11.03;5.50;;;5.20;99.90;;;;;;5137431;27;20446;-58
2022/11/25 06:53:38;;;;;;;8.03;6.33;;;5.20;99.90;;;;;;5137308;27;20537;-58
2022/11/25 06:56:07;;;;;;;14.03;5.90;;;5.20;99.90;;;;;;5136714;27;20564;-58
2022/11/25 06:58:35;;;;;;;5.63;4.83;;;5.10;99.90;;;;;;5136879;27;20473;-59
2022/11/25 07:01:06;;;;;;;10.07;5.97;;;5.10;99.90;;;;;;5136728;27;20524;-58
2022/11/25 07:03:35;;;;;;;11.07;6.13;;;5.10;99.90;;;;;;5136800;27;20457;-58
2022/11/25 07:06:02;;;;;;;8.13;5.23;;;5.10;99.90;;;;;;5136952;27;20457;-58
2022/11/25 07:08:30;;;;;;;9.40;7.10;;;5.10;99.90;;;;;;5136662;27;20445;-57
2022/11/25 07:11:03;;;;;;;11.97;8.17;;;5.20;99.90;;;;;;5136666;27;20630;-60
2022/11/25 07:13:30;;;;;;;16.70;7.80;;;5.30;99.90;;;;;;5135895;27;20466;-58
2022/11/25 07:16:01;;;;;;;11.47;7.50;;;5.40;99.90;;;;;;5136702;27;20513;-58
2022/11/25 07:18:31;;;;;;;9.93;5.43;;;5.50;99.90;;;;;;5137622;27;20425;-58
2022/11/25 07:21:03;;;;;;;6.50;5.70;;;5.60;99.90;;;;;;5136149;27;21048;-58
2022/11/25 07:23:30;;;;;;;6.43;5.30;;;5.70;99.90;;;;;;5136651;27;20426;-58
2022/11/25 07:26:03;;;;;;;5.33;4.83;;;5.90;99.90;;;;;;5136489;27;20471;-59
2022/11/25 07:28:30;;;;;;;6.13;3.83;;;5.90;99.90;;;;;;5136618;27;20437;-59
2022/11/25 07:31:04;;;;;;;7.13;4.40;;;6.10;99.90;;;;;;5136215;27;20446;-59
2022/11/25 07:33:33;;;;;;;6.50;5.30;;;6.20;99.90;;;;;;5135955;27;20937;-58
2022/11/25 07:36:03;;;;;;;7.10;5.00;;;6.20;99.90;;;;;;5135751;27;20481;-59
2022/11/25 07:38:30;;;;;;;11.80;4.80;;;6.20;99.90;;;;;;5135789;27;20442;-58
2022/11/25 07:41:02;;;;;;;6.33;4.97;;;6.20;99.90;;;;;;5135966;27;20874;-58
2022/11/25 07:43:30;;;;;;;9.27;4.47;;;6.30;99.90;;;;;;5135685;27;20829;-58
2022/11/25 07:45:57;;;;;;;6.07;4.10;;;6.40;99.90;;;;;;5135688;27;20544;-58
2022/11/25 07:48:24;;;;;;;4.80;4.40;;;6.40;99.90;;;;;;5135826;27;20498;-59
2022/11/25 07:50:53;;;;;;;4.40;4.00;;;6.50;99.90;;;;;;5135412;27;20498;-59
2022/11/25 07:53:20;;;;;;;12.73;5.03;;;6.60;99.90;;;;;;5135753;27;20529;-59
2022/11/25 07:55:47;;;;;;;9.50;4.10;;;6.70;99.90;;;;;;5135890;27;20564;-58
2022/11/25 07:58:15;;;;;;;9.73;4.90;;;6.70;99.90;;;;;;5135650;27;20481;-58
2022/11/25 08:00:42;;;;;;;6.47;4.37;;;6.70;99.90;;;;;;5136424;27;20536;-59
2022/11/25 08:03:09;;;;;;;5.90;5.07;;;6.90;99.90;;;;;;5135485;27;21007;-58
2022/11/25 08:05:36;;;;;;;4.57;4.13;;;6.90;99.90;;;;;;5135777;27;20596;-59
2022/11/25 08:08:05;;;;;;;9.57;5.10;;;6.90;99.90;;;;;;5135632;27;20470;-59
2022/11/25 08:10:33;;;;;;;8.13;4.20;;;6.90;99.90;;;;;;5135295;27;20536;-59
2022/11/25 08:13:01;;;;;;;5.73;3.83;;;7.00;99.90;;;;;;5135304;27;20952;-59
2022/11/25 08:15:28;;;;;;;6.53;5.20;;;7.10;99.90;;;;;;5135199;27;21032;-59
2022/11/25 08:17:55;;;;;;;4.77;4.30;;;7.10;99.90;;;;;;5135254;27;20951;-59
2022/11/25 08:20:23;;;;;;;4.20;3.60;;;7.10;99.90;;;;;;5134170;27;20514;-58
2022/11/25 08:22:50;;;;;;;8.77;4.60;;;7.10;99.90;;;;;;5135975;27;20484;-58
2022/11/25 08:25:18;;;;;;;11.20;4.70;;;7.10;99.90;;;;;;5134256;27;20542;-58
2022/11/25 08:27:46;;;;;;;6.73;4.67;;;7.10;99.90;;;;;;5135091;27;20932;-58
2022/11/25 08:30:14;;;;;;;6.63;4.23;;;7.10;99.90;;;;;;5135045;27;20442;-58
2022/11/25 08:32:41;;;;;;;5.43;4.63;;;7.20;99.90;;;;;;5135380;27;20531;-58
2022/11/25 08:35:09;;;;;;;7.47;4.50;;;7.20;99.90;;;;;;5135107;27;20568;-59
2022/11/25 08:37:36;;;;;;;5.40;4.30;;;7.30;99.90;;;;;;5135094;27;20476;-59
2022/11/25 08:40:04;;;;;;;5.77;3.50;;;7.40;99.90;;;;;;5134814;27;20528;-58
2022/11/25 08:42:32;;;;;;;4.73;4.23;;;7.40;99.90;;;;;;5135035;27;20491;-58
2022/11/25 08:45:00;;;;;;;6.13;4.37;;;7.60;99.90;;;;;;5135328;27;20497;-58
2022/11/25 08:47:27;;;;;;;6.33;5.00;;;7.60;99.90;;;;;;5134738;27;20536;-58
2022/11/25 08:49:55;;;;;;;15.00;5.33;;;7.80;99.90;;;;;;5134499;27;20947;-59
2022/11/25 08:52:23;;;;;;;8.30;4.37;;;7.80;99.90;;;;;;5135364;27;20540;-59
2022/11/25 08:54:50;;;;;;;6.33;4.40;;;7.80;99.90;;;;;;5133957;27;20537;-58
2022/11/25 08:57:18;;;;;;;5.83;5.20;;;7.80;99.90;;;;;;5134413;27;20492;-59
2022/11/25 08:59:47;;;;;;;8.03;5.37;;;7.80;99.90;;;;;;5134703;27;20532;-59
2022/11/25 09:02:16;;;;;;;6.70;4.90;;;7.80;99.90;;;;;;5135036;27;20445;-58
2022/11/25 09:04:44;;;;;;;5.70;4.50;;;7.70;99.90;;;;;;5134259;27;20978;-58
2022/11/25 09:07:11;;;;;;;6.33;4.70;;;7.70;99.90;;;;;;5134550;27;20441;-59
2022/11/25 09:09:38;;;;;;;4.90;4.33;;;7.80;99.90;;;;;;5134072;27;20473;-59
2022/11/25 09:12:06;;;;;;;5.30;4.77;;;7.80;99.90;;;;;;5134820;27;21034;-58
2022/11/25 09:14:33;;;;;;;7.23;4.27;;;8.00;99.90;;;;;;5134148;27;20449;-58
2022/11/25 09:17:02;;;;;;;7.90;4.23;;;8.20;99.90;;;;;;5134094;27;20557;-58
2022/11/25 09:19:29;;;;;;;4.60;4.20;;;8.30;99.90;;;;;;5133597;27;20459;-58
2022/11/25 09:21:57;;;;;;;9.13;5.13;;;8.40;99.90;;;;;;5134337;27;20524;-58
2022/11/25 09:24:24;;;;;;;9.53;4.30;;;8.50;99.90;;;;;;5134354;28;20789;-58
2022/11/25 09:26:51;;;;;;;3.87;3.40;;;8.60;99.90;;;;;;5134601;28;20493;-58
2022/11/25 09:29:18;;;;;;;4.10;3.50;;;8.70;99.90;;;;;;5133927;28;20849;-58
2022/11/25 09:31:45;;;;;;;7.60;3.60;;;8.90;99.90;;;;;;5133697;28;20441;-59
2022/11/25 09:34:14;;;;;;;7.63;5.30;;;8.90;99.90;;;;;;5133653;28;20445;-59
2022/11/25 09:36:41;;;;;;;5.93;3.87;;;8.90;99.90;;;;;;5135166;27;20528;-58
2022/11/25 09:39:08;;;;;;;4.07;3.60;;;8.90;99.90;;;;;;5138369;27;20853;-58
2022/11/25 09:47:42;;;;;;;3.57;3.27;;;9.10;99.90;;;;;;5138215;27;20903;-59
2022/11/25 09:50:20;;;;;;;5.07;3.70;;;9.30;99.90;;;;;;5138389;27;20521;-59
2022/11/25 09:52:58;;;;;;;7.80;3.50;;;9.20;99.90;;;;;;5138333;27;20508;-58
2022/11/25 09:55:30;;;;;;;3.90;3.10;;;9.30;99.90;;;;;;5137632;27;20564;-58
2022/11/25 09:58:05;;;;;;;4.87;3.37;;;9.30;99.90;;;;;;5137946;27;20501;-58
2022/11/25 10:00:39;;;;;;;5.87;4.37;;;9.60;99.90;;;;;;5138220;27;20478;-58
2022/11/25 10:03:15;;;;;;;7.10;4.80;;;9.60;99.90;;;;;;5138089;27;20959;-58
2022/11/25 10:05:52;;;;;;;9.97;5.47;;;9.50;99.90;;;;;;5137605;27;20492;-58
2022/11/25 10:08:25;;;;;;;10.43;5.10;;;9.50;99.90;;;;;;5137988;27;20919;-58
2022/11/25 10:10:58;;;;;;;8.50;6.00;;;9.50;99.90;;;;;;5137607;27;20461;-58
2022/11/25 10:13:34;;;;;;;8.20;5.53;;;9.40;99.90;;;;;;5137381;27;20513;-58
2022/11/25 10:16:06;;;;;;;7.70;5.87;;;9.50;99.90;;;;;;5137677;27;20517;-58
2022/11/25 10:18:40;;;;;;;5.30;4.80;;;9.50;99.90;;;;;;5137182;27;21015;-58
2022/11/25 10:21:11;;;;;;;10.10;4.63;;;9.60;99.90;;;;;;5137040;27;20568;-58
2022/11/25 10:23:39;;;;;;;5.53;4.10;;;9.60;99.90;;;;;;5137722;27;20426;-58
2022/11/25 10:26:13;;;;;;;7.53;4.33;;;9.70;99.90;;;;;;5136658;27;20489;-58
2022/11/25 10:28:43;;;;;;;4.90;4.40;;;9.80;99.90;;;;;;5137067;27;20963;-58
2022/11/25 10:31:18;;;;;;;4.23;3.50;;;10.00;99.90;;;;;;5137453;27;20548;-59
2022/11/25 10:33:47;;;;;;;4.30;3.80;;;10.10;99.90;;;;;;5137059;27;20421;-58
2022/11/25 10:36:20;;;;;;;6.23;3.17;;;10.30;99.90;;;;;;5137216;27;20568;-58
2022/11/25 10:38:56;;;;;;;5.57;2.83;;;10.40;99.90;;;;;;5137549;27;20449;-58
2022/11/25 10:41:26;;;;;;;4.70;3.60;;;11.00;99.90;;;;;;5137120;27;20469;-58
2022/11/25 10:43:54;;;;;;;8.90;3.10;;;11.70;99.90;;;;;;5136846;27;20492;-58
2022/11/25 10:46:32;;;;;;;4.37;2.80;;;11.90;99.90;;;;;;5136743;27;21002;-59
2022/11/25 10:49:04;;;;;;;4.07;3.20;;;11.90;99.90;;;;;;5136293;27;20513;-58
2022/11/25 10:51:43;;;;;;;5.80;4.20;;;11.60;99.90;;;;;;5137552;27;20774;-59
2022/11/25 10:54:16;;;;;;;6.10;3.13;;;11.50;99.90;;;;;;5136805;27;20434;-58
2022/11/25 10:56:46;;;;;;;5.37;2.93;;;11.20;99.90;;;;;;5136371;27;20625;-59
2022/11/25 10:59:21;;;;;;;5.20;3.60;;;11.20;99.90;;;;;;5136447;27;20477;-59
2022/11/25 11:01:48;;;;;;;9.83;3.10;;;11.10;99.90;;;;;;5136412;27;20453;-59
2022/11/25 11:04:17;;;;;;;9.67;3.60;;;11.00;99.90;;;;;;5136208;27;20529;-58
2022/11/25 11:06:49;;;;;;;6.77;2.83;;;11.10;99.90;;;;;;5136356;27;20476;-59
2022/11/25 11:09:33;;;;;;;4.63;3.00;;;11.10;99.90;;;;;;5136389;27;20491;-58
2022/11/25 11:12:14;;;;;;;6.63;2.63;;;10.90;99.90;;;;;;5136813;27;20490;-58
2022/11/25 11:14:41;;;;;;;5.50;2.87;;;10.80;99.90;;;;;;5136003;27;20426;-58
2022/11/25 11:17:27;;;;;;;3.40;2.93;;;10.70;99.90;;;;;;5136037;27;20560;-58
2022/11/25 11:20:15;;;;;;;7.43;3.97;;;10.70;99.90;;;;;;5135907;27;20477;-58
2022/11/25 11:22:50;;;;;;;5.53;3.30;;;10.70;99.90;;;;;;5136484;27;20454;-58
2022/11/25 11:25:29;;;;;;;9.00;3.47;;;10.70;99.90;;;;;;5135941;27;20502;-58
2022/11/25 11:27:57;;;;;;;4.90;2.93;;;10.70;99.90;;;;;;5135894;27;20888;-58
2022/11/25 11:30:26;;;;;;;4.53;2.50;;;10.70;99.90;;;;;;5136234;27;20477;-58
2022/11/25 11:33:00;;;;;;;2.90;2.30;;;10.70;99.90;;;;;;5136028;27;20510;-58
2022/11/25 11:35:42;;;;;;;6.67;3.10;;;10.60;99.90;;;;;;5135514;27;20510;-58
2022/11/25 11:38:24;;;;;;;6.63;4.30;;;10.60;99.90;;;;;;5135514;27;20540;-58
2022/11/25 11:40:57;;;;;;;7.90;5.37;;;10.50;99.90;;;;;;5135528;27;20433;-58
2022/11/25 11:43:53;;;;;;;7.83;5.10;;;10.40;99.90;;;;;;5135560;27;20447;-58
2022/11/25 11:46:34;;;;;;;8.30;4.57;;;10.20;99.90;;;;;;5130811;27;20548;-59
2022/11/25 11:49:15;;;;;;;6.80;3.90;;;10.10;99.90;;;;;;5135401;27;20849;-59
2022/11/25 11:51:53;;;;;;;6.33;3.90;;;9.90;99.90;;;;;;5135591;27;20476;-59
2022/11/25 11:54:29;;;;;;;4.90;3.60;;;9.80;99.90;;;;;;5135292;27;20497;-58
2022/11/25 11:57:00;;;;;;;5.73;3.80;;;9.70;99.90;;;;;;5134936;27;20517;-58
2022/11/25 11:59:47;;;;;;;7.03;4.27;;;9.80;99.90;;;;;;5134456;27;20483;-58
2022/11/25 12:02:29;;;;;;;5.90;4.23;;;9.70;99.90;;;;;;5135537;27;20509;-59
2022/11/25 12:05:04;;;;;;;6.50;3.53;;;9.60;99.90;;;;;;5135233;27;20461;-58
2022/11/25 12:07:37;;;;;;;4.83;3.03;;;9.50;99.90;;;;;;5135492;27;20504;-58
2022/11/25 12:10:15;;;;;;;6.70;3.87;;;9.70;99.90;;;;;;5135533;27;20425;-58
2022/11/25 12:12:49;;;;;;;8.93;3.70;;;9.60;99.90;;;;;;5135023;27;20823;-58
2022/11/25 12:15:21;;;;;;;8.70;4.00;;;9.50;99.90;;;;;;5135037;27;20462;-58
2022/11/25 12:17:53;;;;;;;6.73;3.33;;;9.50;99.90;;;;;;5135201;27;20884;-58
2022/11/25 12:20:34;;;;;;;6.80;3.50;;;9.40;99.90;;;;;;5134503;27;20489;-59
2022/11/25 12:23:07;;;;;;;7.57;3.60;;;9.40;99.90;;;;;;5135053;27;20505;-58
2022/11/25 12:25:39;;;;;;;9.63;4.00;;;9.40;99.90;;;;;;5135410;27;20497;-59
2022/11/25 12:28:11;;;;;;;7.17;3.23;;;9.50;99.90;;;;;;5134577;27;20469;-58
2022/11/25 12:30:45;;;;;;;5.57;3.37;;;9.60;99.90;;;;;;5135107;27;20508;-58
2022/11/25 12:33:20;;;;;;;7.43;3.73;;;9.60;99.90;;;;;;5134792;27;20454;-58
2022/11/25 12:35:56;;;;;;;5.00;3.60;;;9.70;99.90;;;;;;5134691;27;20469;-57
2022/11/25 12:38:36;;;;;;;7.40;3.70;;;9.70;99.90;;;;;;5134476;27;20923;-57
2022/11/25 12:41:13;;;;;;;4.03;3.20;;;9.70;99.90;;;;;;5134998;27;20496;-58
2022/11/25 12:43:46;;;;;;;6.00;3.47;;;9.60;99.90;;;;;;5134818;27;20450;-58
2022/11/25 12:46:24;;;;;;;6.00;3.70;;;9.70;99.90;;;;;;5132290;27;20505;-58
2022/11/25 12:48:53;;;;;;;9.70;4.30;;;9.70;99.90;;;;;;5134373;27;20520;-59
2022/11/25 12:51:41;;;;;;;7.87;5.50;;;9.70;99.90;;;;;;5126323;27;20451;-59
2022/11/25 12:54:24;;;;;;;6.30;3.40;;;9.70;99.90;;;;;;5122922;27;20488;-58
2022/11/25 12:57:24;;;;;;;6.30;4.63;;;9.80;99.90;;;;;;5120769;27;20569;-60
2022/11/25 13:00:02;;;;;;;4.47;3.30;;;9.80;99.90;;;;;;5123874;27;20500;-54
2022/11/25 13:02:47;;;;;;;6.77;3.30;;;9.80;99.90;;;;;;5127320;27;20475;-58
2022/11/25 13:05:34;;;;;;;7.93;3.93;;;9.80;99.90;;;;;;5124648;27;20530;-58
2022/11/25 13:08:16;;;;;;;4.50;4.00;;;9.80;99.90;;;;;;5126867;27;20437;-58
2022/11/25 13:11:18;;;;;;;7.60;4.27;;;9.70;99.90;;;;;;5129175;27;20507;-58
2022/11/25 13:13:58;;;;;;;8.00;4.27;;;9.70;99.90;;;;;;5121036;27;20458;-56
2022/11/25 13:16:26;;;;;;;7.47;3.93;;;9.60;99.90;;;;;;5119425;27;21099;-61
2022/11/25 13:18:55;;;;;;;6.40;4.30;;;9.60;99.90;;;;;;5126657;27;20470;-58
2022/11/25 13:21:24;;;;;;;5.97;5.47;;;9.60;99.90;;;;;;5128767;27;20512;-58